sensor_id;sensor_type;location;lat;lon;timestamp;P1;durP1;ratioP1;P2;durP2;ratioP2
54641;SDS011;40536;53.194;5.728;2022-12-18T00:00:44;868.08;;;785.13;;
54641;SDS011;40536;53.194;5.728;2022-12-18T00:03:12;872.00;;;784.47;;
54641;SDS011;40536;53.194;5.728;2022-12-18T00:05:45;884.10;;;794.08;;
54641;SDS011;40536;53.194;5.728;2022-12-18T00:08:15;853.58;;;770.40;;
54641;SDS011;40536;53.194;5.728;2022-12-18T00:10:42;855.15;;;774.53;;
54641;SDS011;40536;53.194;5.728;2022-12-18T00:13:08;865.83;;;779.78;;
54641;SDS011;40536;53.194;5.728;2022-12-18T00:15:34;819.35;;;738.20;;
54641;SDS011;40536;53.194;5.728;2022-12-18T00:18:01;854.08;;;772.58;;
54641;SDS011;40536;53.194;5.728;2022-12-18T00:20:26;873.72;;;786.78;;
54641;SDS011;40536;53.194;5.728;2022-12-18T00:22:53;887.42;;;806.22;;
54641;SDS011;40536;53.194;5.728;2022-12-18T00:25:19;845.10;;;765.65;;
54641;SDS011;40536;53.194;5.728;2022-12-18T00:27:44;844.65;;;765.70;;
54641;SDS011;40536;53.194;5.728;2022-12-18T00:30:10;851.20;;;767.60;;
54641;SDS011;40536;53.194;5.728;2022-12-18T00:32:36;873.72;;;792.47;;
54641;SDS011;40536;53.194;5.728;2022-12-18T00:35:02;854.05;;;770.63;;
54641;SDS011;40536;53.194;5.728;2022-12-18T00:37:29;857.42;;;776.75;;
54641;SDS011;40536;53.194;5.728;2022-12-18T00:39:54;875.70;;;795.28;;
54641;SDS011;40536;53.194;5.728;2022-12-18T00:42:20;897.33;;;813.28;;
54641;SDS011;40536;53.194;5.728;2022-12-18T00:45:05;930.75;;;848.45;;
54641;SDS011;40536;53.194;5.728;2022-12-18T00:47:31;941.72;;;853.95;;
54641;SDS011;40536;53.194;5.728;2022-12-18T00:49:56;907.13;;;824.92;;
54641;SDS011;40536;53.194;5.728;2022-12-18T00:52:22;892.50;;;810.47;;
54641;SDS011;40536;53.194;5.728;2022-12-18T00:54:47;1013.45;;;923.08;;
54641;SDS011;40536;53.194;5.728;2022-12-18T00:57:13;923.83;;;842.25;;
54641;SDS011;40536;53.194;5.728;2022-12-18T00:59:39;1056.00;;;959.05;;
54641;SDS011;40536;53.194;5.728;2022-12-18T01:02:04;937.55;;;853.33;;
54641;SDS011;40536;53.194;5.728;2022-12-18T01:04:33;962.67;;;875.30;;
54641;SDS011;40536;53.194;5.728;2022-12-18T01:06:59;911.65;;;828.05;;
54641;SDS011;40536;53.194;5.728;2022-12-18T01:09:25;948.45;;;862.42;;
54641;SDS011;40536;53.194;5.728;2022-12-18T01:11:51;922.35;;;838.03;;
54641;SDS011;40536;53.194;5.728;2022-12-18T01:14:16;1011.28;;;920.55;;
54641;SDS011;40536;53.194;5.728;2022-12-18T01:16:42;861.97;;;784.42;;
54641;SDS011;40536;53.194;5.728;2022-12-18T01:19:08;894.00;;;814.28;;
54641;SDS011;40536;53.194;5.728;2022-12-18T01:21:34;880.25;;;797.20;;
54641;SDS011;40536;53.194;5.728;2022-12-18T01:23:59;894.13;;;816.67;;
54641;SDS011;40536;53.194;5.728;2022-12-18T01:26:25;824.03;;;752.15;;
54641;SDS011;40536;53.194;5.728;2022-12-18T01:28:54;1086.13;;;983.97;;
54641;SDS011;40536;53.194;5.728;2022-12-18T01:31:23;1091.80;;;995.70;;
54641;SDS011;40536;53.194;5.728;2022-12-18T01:33:50;1033.88;;;935.25;;
54641;SDS011;40536;53.194;5.728;2022-12-18T01:36:21;1026.45;;;931.67;;
54641;SDS011;40536;53.194;5.728;2022-12-18T01:38:49;1039.78;;;939.90;;
54641;SDS011;40536;53.194;5.728;2022-12-18T01:41:16;931.70;;;847.53;;
54641;SDS011;40536;53.194;5.728;2022-12-18T01:43:47;905.45;;;829.33;;
54641;SDS011;40536;53.194;5.728;2022-12-18T01:46:14;793.08;;;720.28;;
54641;SDS011;40536;53.194;5.728;2022-12-18T01:48:41;791.55;;;718.22;;
54641;SDS011;40536;53.194;5.728;2022-12-18T01:51:08;912.47;;;829.33;;
54641;SDS011;40536;53.194;5.728;2022-12-18T01:53:36;855.60;;;773.45;;
54641;SDS011;40536;53.194;5.728;2022-12-18T01:56:02;844.72;;;766.15;;
54641;SDS011;40536;53.194;5.728;2022-12-18T01:58:46;881.42;;;798.58;;
54641;SDS011;40536;53.194;5.728;2022-12-18T02:01:15;846.47;;;767.20;;
54641;SDS011;40536;53.194;5.728;2022-12-18T02:03:42;854.90;;;776.65;;
54641;SDS011;40536;53.194;5.728;2022-12-18T02:06:20;876.17;;;796.05;;
54641;SDS011;40536;53.194;5.728;2022-12-18T02:09:11;865.45;;;785.40;;
54641;SDS011;40536;53.194;5.728;2022-12-18T02:14:19;872.47;;;793.20;;
54641;SDS011;40536;53.194;5.728;2022-12-18T02:16:56;918.08;;;833.78;;
54641;SDS011;40536;53.194;5.728;2022-12-18T02:27:59;1027.07;;;930.20;;
54641;SDS011;40536;53.194;5.728;2022-12-18T02:30:27;967.60;;;874.55;;
54641;SDS011;40536;53.194;5.728;2022-12-18T02:32:56;1026.93;;;926.45;;
54641;SDS011;40536;53.194;5.728;2022-12-18T02:35:24;1015.83;;;919.47;;
54641;SDS011;40536;53.194;5.728;2022-12-18T02:37:54;973.97;;;878.38;;
54641;SDS011;40536;53.194;5.728;2022-12-18T02:40:20;931.08;;;843.03;;
54641;SDS011;40536;53.194;5.728;2022-12-18T02:42:48;927.65;;;840.25;;
54641;SDS011;40536;53.194;5.728;2022-12-18T02:45:14;912.97;;;825.05;;
54641;SDS011;40536;53.194;5.728;2022-12-18T02:47:40;922.15;;;832.22;;
54641;SDS011;40536;53.194;5.728;2022-12-18T02:53:13;881.05;;;794.75;;
54641;SDS011;40536;53.194;5.728;2022-12-18T02:58:30;860.40;;;779.20;;
54641;SDS011;40536;53.194;5.728;2022-12-18T03:01:27;847.38;;;768.53;;
54641;SDS011;40536;53.194;5.728;2022-12-18T03:04:47;862.42;;;781.90;;
54641;SDS011;40536;53.194;5.728;2022-12-18T03:07:38;873.95;;;794.35;;
54641;SDS011;40536;53.194;5.728;2022-12-18T03:10:07;881.35;;;800.58;;
54641;SDS011;40536;53.194;5.728;2022-12-18T03:12:38;887.85;;;806.30;;
54641;SDS011;40536;53.194;5.728;2022-12-18T03:15:10;901.42;;;819.67;;
54641;SDS011;40536;53.194;5.728;2022-12-18T03:17:56;823.35;;;750.92;;
54641;SDS011;40536;53.194;5.728;2022-12-18T03:20:26;820.83;;;751.13;;
54641;SDS011;40536;53.194;5.728;2022-12-18T03:22:59;904.58;;;824.75;;
54641;SDS011;40536;53.194;5.728;2022-12-18T03:25:31;986.38;;;895.17;;
54641;SDS011;40536;53.194;5.728;2022-12-18T03:28:00;952.30;;;868.15;;
54641;SDS011;40536;53.194;5.728;2022-12-18T03:30:30;999.80;;;907.55;;
54641;SDS011;40536;53.194;5.728;2022-12-18T03:33:00;977.00;;;890.47;;
54641;SDS011;40536;53.194;5.728;2022-12-18T03:35:33;973.83;;;887.97;;
54641;SDS011;40536;53.194;5.728;2022-12-18T03:38:02;927.60;;;841.45;;
54641;SDS011;40536;53.194;5.728;2022-12-18T03:40:37;831.83;;;759.00;;
54641;SDS011;40536;53.194;5.728;2022-12-18T03:46:06;906.97;;;826.67;;
54641;SDS011;40536;53.194;5.728;2022-12-18T03:48:39;788.00;;;728.33;;
54641;SDS011;40536;53.194;5.728;2022-12-18T03:54:17;1014.25;;;915.80;;
54641;SDS011;40536;53.194;5.728;2022-12-18T03:56:48;872.13;;;796.75;;
54641;SDS011;40536;53.194;5.728;2022-12-18T03:59:20;888.13;;;811.58;;
54641;SDS011;40536;53.194;5.728;2022-12-18T04:01:47;885.30;;;808.75;;
54641;SDS011;40536;53.194;5.728;2022-12-18T04:04:17;893.33;;;815.72;;
54641;SDS011;40536;53.194;5.728;2022-12-18T04:06:44;880.95;;;803.65;;
54641;SDS011;40536;53.194;5.728;2022-12-18T04:09:12;988.03;;;899.90;;
54641;SDS011;40536;53.194;5.728;2022-12-18T04:11:40;890.75;;;811.65;;
54641;SDS011;40536;53.194;5.728;2022-12-18T04:14:08;933.08;;;850.78;;
54641;SDS011;40536;53.194;5.728;2022-12-18T04:16:35;909.95;;;827.55;;
54641;SDS011;40536;53.194;5.728;2022-12-18T04:19:00;885.08;;;803.40;;
54641;SDS011;40536;53.194;5.728;2022-12-18T04:21:26;846.08;;;769.88;;
54641;SDS011;40536;53.194;5.728;2022-12-18T04:23:52;904.90;;;823.80;;
54641;SDS011;40536;53.194;5.728;2022-12-18T04:26:17;911.45;;;829.65;;
54641;SDS011;40536;53.194;5.728;2022-12-18T04:28:43;843.17;;;767.05;;
54641;SDS011;40536;53.194;5.728;2022-12-18T04:31:08;919.72;;;836.47;;
54641;SDS011;40536;53.194;5.728;2022-12-18T04:33:34;938.35;;;853.33;;
54641;SDS011;40536;53.194;5.728;2022-12-18T04:36:00;966.47;;;874.10;;
54641;SDS011;40536;53.194;5.728;2022-12-18T04:38:25;935.78;;;847.00;;
54641;SDS011;40536;53.194;5.728;2022-12-18T04:40:51;872.03;;;790.28;;
54641;SDS011;40536;53.194;5.728;2022-12-18T04:43:17;880.30;;;800.70;;
54641;SDS011;40536;53.194;5.728;2022-12-18T04:45:42;841.42;;;766.17;;
54641;SDS011;40536;53.194;5.728;2022-12-18T04:48:08;882.83;;;803.38;;
54641;SDS011;40536;53.194;5.728;2022-12-18T04:50:33;808.72;;;737.33;;
54641;SDS011;40536;53.194;5.728;2022-12-18T04:52:59;748.75;;;683.60;;
54641;SDS011;40536;53.194;5.728;2022-12-18T04:55:25;827.45;;;754.00;;
54641;SDS011;40536;53.194;5.728;2022-12-18T04:57:51;797.30;;;726.47;;
54641;SDS011;40536;53.194;5.728;2022-12-18T05:00:17;852.97;;;773.35;;
54641;SDS011;40536;53.194;5.728;2022-12-18T05:02:43;916.00;;;826.15;;
54641;SDS011;40536;53.194;5.728;2022-12-18T05:05:08;843.35;;;765.10;;
54641;SDS011;40536;53.194;5.728;2022-12-18T05:07:34;815.53;;;740.40;;
54641;SDS011;40536;53.194;5.728;2022-12-18T05:10:00;849.53;;;772.67;;
54641;SDS011;40536;53.194;5.728;2022-12-18T05:12:26;848.88;;;770.92;;
54641;SDS011;40536;53.194;5.728;2022-12-18T05:14:51;919.00;;;835.80;;
54641;SDS011;40536;53.194;5.728;2022-12-18T05:17:17;906.65;;;825.75;;
54641;SDS011;40536;53.194;5.728;2022-12-18T05:19:43;922.42;;;841.13;;
54641;SDS011;40536;53.194;5.728;2022-12-18T05:22:08;849.30;;;772.28;;
54641;SDS011;40536;53.194;5.728;2022-12-18T05:24:34;837.63;;;765.40;;
54641;SDS011;40536;53.194;5.728;2022-12-18T05:27:00;885.47;;;808.88;;
54641;SDS011;40536;53.194;5.728;2022-12-18T05:29:26;875.80;;;800.38;;
54641;SDS011;40536;53.194;5.728;2022-12-18T05:31:52;893.22;;;816.20;;
54641;SDS011;40536;53.194;5.728;2022-12-18T05:34:17;880.45;;;807.70;;
54641;SDS011;40536;53.194;5.728;2022-12-18T05:36:43;906.72;;;829.03;;
54641;SDS011;40536;53.194;5.728;2022-12-18T05:39:09;873.38;;;795.20;;
54641;SDS011;40536;53.194;5.728;2022-12-18T05:41:34;911.20;;;832.78;;
54641;SDS011;40536;53.194;5.728;2022-12-18T05:44:00;925.65;;;845.28;;
54641;SDS011;40536;53.194;5.728;2022-12-18T05:46:26;903.72;;;825.97;;
54641;SDS011;40536;53.194;5.728;2022-12-18T05:48:51;845.08;;;773.70;;
54641;SDS011;40536;53.194;5.728;2022-12-18T05:51:18;808.65;;;740.17;;
54641;SDS011;40536;53.194;5.728;2022-12-18T05:53:46;858.47;;;785.08;;
54641;SDS011;40536;53.194;5.728;2022-12-18T05:56:17;823.70;;;751.53;;
54641;SDS011;40536;53.194;5.728;2022-12-18T05:58:44;822.55;;;749.83;;
54641;SDS011;40536;53.194;5.728;2022-12-18T06:01:15;798.10;;;731.53;;
54641;SDS011;40536;53.194;5.728;2022-12-18T06:03:42;777.72;;;712.67;;
54641;SDS011;40536;53.194;5.728;2022-12-18T06:06:12;775.90;;;706.65;;
54641;SDS011;40536;53.194;5.728;2022-12-18T06:08:39;770.00;;;699.42;;
54641;SDS011;40536;53.194;5.728;2022-12-18T06:11:05;750.78;;;683.45;;
54641;SDS011;40536;53.194;5.728;2022-12-18T06:13:31;722.50;;;655.53;;
54641;SDS011;40536;53.194;5.728;2022-12-18T06:15:56;723.63;;;659.00;;
54641;SDS011;40536;53.194;5.728;2022-12-18T06:18:22;733.15;;;667.67;;
54641;SDS011;40536;53.194;5.728;2022-12-18T06:20:57;799.25;;;726.60;;
54641;SDS011;40536;53.194;5.728;2022-12-18T06:23:23;746.17;;;678.05;;
54641;SDS011;40536;53.194;5.728;2022-12-18T06:25:49;769.92;;;697.78;;
54641;SDS011;40536;53.194;5.728;2022-12-18T06:28:15;749.63;;;680.28;;
54641;SDS011;40536;53.194;5.728;2022-12-18T06:30:45;796.95;;;721.75;;
54641;SDS011;40536;53.194;5.728;2022-12-18T06:33:13;789.72;;;713.42;;
54641;SDS011;40536;53.194;5.728;2022-12-18T06:35:39;709.47;;;644.78;;
54641;SDS011;40536;53.194;5.728;2022-12-18T06:38:05;764.65;;;689.72;;
54641;SDS011;40536;53.194;5.728;2022-12-18T06:40:31;844.28;;;761.22;;
54641;SDS011;40536;53.194;5.728;2022-12-18T06:42:56;748.47;;;676.00;;
54641;SDS011;40536;53.194;5.728;2022-12-18T06:45:22;743.88;;;676.60;;
54641;SDS011;40536;53.194;5.728;2022-12-18T06:47:48;740.53;;;673.33;;
54641;SDS011;40536;53.194;5.728;2022-12-18T06:50:13;782.63;;;711.20;;
54641;SDS011;40536;53.194;5.728;2022-12-18T06:52:39;785.80;;;713.47;;
54641;SDS011;40536;53.194;5.728;2022-12-18T06:55:08;775.92;;;707.35;;
54641;SDS011;40536;53.194;5.728;2022-12-18T06:57:34;827.20;;;750.28;;
54641;SDS011;40536;53.194;5.728;2022-12-18T07:00:00;809.22;;;731.53;;
54641;SDS011;40536;53.194;5.728;2022-12-18T07:02:26;733.15;;;664.70;;
54641;SDS011;40536;53.194;5.728;2022-12-18T07:04:51;719.08;;;651.35;;
54641;SDS011;40536;53.194;5.728;2022-12-18T07:07:17;743.53;;;676.78;;
54641;SDS011;40536;53.194;5.728;2022-12-18T07:09:43;727.50;;;661.38;;
54641;SDS011;40536;53.194;5.728;2022-12-18T07:12:08;767.50;;;698.42;;
54641;SDS011;40536;53.194;5.728;2022-12-18T07:14:34;756.65;;;689.13;;
54641;SDS011;40536;53.194;5.728;2022-12-18T07:17:00;735.03;;;668.95;;
54641;SDS011;40536;53.194;5.728;2022-12-18T07:19:25;758.25;;;686.38;;
54641;SDS011;40536;53.194;5.728;2022-12-18T07:21:51;742.95;;;675.65;;
54641;SDS011;40536;53.194;5.728;2022-12-18T07:24:17;721.17;;;657.42;;
54641;SDS011;40536;53.194;5.728;2022-12-18T07:26:45;753.80;;;687.20;;
54641;SDS011;40536;53.194;5.728;2022-12-18T07:29:11;737.65;;;672.50;;
54641;SDS011;40536;53.194;5.728;2022-12-18T07:31:36;727.53;;;661.60;;
54641;SDS011;40536;53.194;5.728;2022-12-18T07:34:02;754.38;;;687.00;;
54641;SDS011;40536;53.194;5.728;2022-12-18T07:36:28;834.97;;;751.88;;
54641;SDS011;40536;53.194;5.728;2022-12-18T07:38:57;802.88;;;728.10;;
54641;SDS011;40536;53.194;5.728;2022-12-18T07:41:22;768.00;;;700.03;;
54641;SDS011;40536;53.194;5.728;2022-12-18T07:43:48;721.88;;;655.13;;
54641;SDS011;40536;53.194;5.728;2022-12-18T07:46:14;712.00;;;644.63;;
54641;SDS011;40536;53.194;5.728;2022-12-18T07:48:41;757.70;;;691.25;;
54641;SDS011;40536;53.194;5.728;2022-12-18T07:51:07;789.78;;;719.80;;
54641;SDS011;40536;53.194;5.728;2022-12-18T07:53:33;653.53;;;597.03;;
54641;SDS011;40536;53.194;5.728;2022-12-18T07:56:01;816.67;;;747.53;;
54641;SDS011;40536;53.194;5.728;2022-12-18T07:58:30;793.38;;;723.10;;
54641;SDS011;40536;53.194;5.728;2022-12-18T08:01:29;828.63;;;757.80;;
54641;SDS011;40536;53.194;5.728;2022-12-18T08:03:48;728.95;;;667.67;;
54641;SDS011;40536;53.194;5.728;2022-12-18T08:06:14;565.53;;;522.17;;
54641;SDS011;40536;53.194;5.728;2022-12-18T08:08:39;937.38;;;853.58;;
54641;SDS011;40536;53.194;5.728;2022-12-18T08:11:07;922.80;;;837.35;;
54641;SDS011;40536;53.194;5.728;2022-12-18T08:13:32;892.25;;;803.97;;
54641;SDS011;40536;53.194;5.728;2022-12-18T08:15:59;988.70;;;901.60;;
54641;SDS011;40536;53.194;5.728;2022-12-18T08:18:26;1023.00;;;937.70;;
54641;SDS011;40536;53.194;5.728;2022-12-18T08:20:52;897.15;;;823.38;;
54641;SDS011;40536;53.194;5.728;2022-12-18T08:23:18;1011.35;;;923.08;;
54641;SDS011;40536;53.194;5.728;2022-12-18T08:25:44;979.80;;;895.80;;
54641;SDS011;40536;53.194;5.728;2022-12-18T08:28:10;1007.60;;;920.15;;
54641;SDS011;40536;53.194;5.728;2022-12-18T08:30:36;887.72;;;815.80;;
54641;SDS011;40536;53.194;5.728;2022-12-18T08:33:02;829.28;;;761.20;;
54641;SDS011;40536;53.194;5.728;2022-12-18T08:35:29;936.85;;;864.40;;
54641;SDS011;40536;53.194;5.728;2022-12-18T08:37:54;897.47;;;821.63;;
54641;SDS011;40536;53.194;5.728;2022-12-18T08:40:20;940.45;;;862.78;;
54641;SDS011;40536;53.194;5.728;2022-12-18T08:42:46;949.25;;;871.10;;
54641;SDS011;40536;53.194;5.728;2022-12-18T08:45:33;918.83;;;840.15;;
54641;SDS011;40536;53.194;5.728;2022-12-18T08:47:59;867.58;;;799.33;;
54641;SDS011;40536;53.194;5.728;2022-12-18T08:50:24;860.95;;;791.80;;
54641;SDS011;40536;53.194;5.728;2022-12-18T08:52:50;823.90;;;758.67;;
54641;SDS011;40536;53.194;5.728;2022-12-18T08:55:16;760.80;;;703.30;;
54641;SDS011;40536;53.194;5.728;2022-12-18T08:57:42;698.60;;;647.00;;
54641;SDS011;40536;53.194;5.728;2022-12-18T09:00:08;959.22;;;887.53;;
54641;SDS011;40536;53.194;5.728;2022-12-18T09:02:34;870.20;;;802.40;;
54641;SDS011;40536;53.194;5.728;2022-12-18T09:04:59;775.33;;;718.63;;
54641;SDS011;40536;53.194;5.728;2022-12-18T09:07:25;971.67;;;896.67;;
54641;SDS011;40536;53.194;5.728;2022-12-18T09:09:51;768.03;;;711.90;;
54641;SDS011;40536;53.194;5.728;2022-12-18T09:12:17;696.80;;;648.15;;
54641;SDS011;40536;53.194;5.728;2022-12-18T09:14:42;732.35;;;681.38;;
54641;SDS011;40536;53.194;5.728;2022-12-18T09:17:08;719.92;;;671.13;;
54641;SDS011;40536;53.194;5.728;2022-12-18T09:19:34;720.45;;;671.03;;
54641;SDS011;40536;53.194;5.728;2022-12-18T09:21:59;723.15;;;673.08;;
54641;SDS011;40536;53.194;5.728;2022-12-18T09:24:25;713.38;;;663.30;;
54641;SDS011;40536;53.194;5.728;2022-12-18T09:26:54;688.38;;;641.25;;
54641;SDS011;40536;53.194;5.728;2022-12-18T09:29:22;707.08;;;659.00;;
54641;SDS011;40536;53.194;5.728;2022-12-18T09:31:48;742.05;;;691.05;;
54641;SDS011;40536;53.194;5.728;2022-12-18T09:34:14;720.05;;;671.22;;
54641;SDS011;40536;53.194;5.728;2022-12-18T09:36:40;695.88;;;647.10;;
54641;SDS011;40536;53.194;5.728;2022-12-18T09:39:06;742.22;;;689.45;;
54641;SDS011;40536;53.194;5.728;2022-12-18T09:46:53;782.28;;;727.88;;
54641;SDS011;40536;53.194;5.728;2022-12-18T09:49:26;709.20;;;660.78;;
54641;SDS011;40536;53.194;5.728;2022-12-18T09:52:08;739.28;;;688.10;;
54641;SDS011;40536;53.194;5.728;2022-12-18T09:57:49;686.92;;;641.08;;
54641;SDS011;40536;53.194;5.728;2022-12-18T10:00:20;690.05;;;644.58;;
54641;SDS011;40536;53.194;5.728;2022-12-18T10:02:47;710.88;;;664.28;;
54641;SDS011;40536;53.194;5.728;2022-12-18T10:05:17;598.10;;;561.75;;
54641;SDS011;40536;53.194;5.728;2022-12-18T10:10:48;856.03;;;796.95;;
54641;SDS011;40536;53.194;5.728;2022-12-18T10:19:01;600.75;;;561.50;;
54641;SDS011;40536;53.194;5.728;2022-12-18T10:27:17;537.92;;;506.00;;
54641;SDS011;40536;53.194;5.728;2022-12-18T10:29:46;559.90;;;525.35;;
54641;SDS011;40536;53.194;5.728;2022-12-18T10:32:16;540.28;;;507.30;;
54641;SDS011;40536;53.194;5.728;2022-12-18T10:34:50;547.72;;;512.42;;
54641;SDS011;40536;53.194;5.728;2022-12-18T10:37:20;536.58;;;503.23;;
54641;SDS011;40536;53.194;5.728;2022-12-18T10:40:08;558.75;;;523.45;;
54641;SDS011;40536;53.194;5.728;2022-12-18T10:42:39;595.85;;;554.65;;
54641;SDS011;40536;53.194;5.728;2022-12-18T10:45:16;561.03;;;524.22;;
54641;SDS011;40536;53.194;5.728;2022-12-18T10:47:45;524.13;;;491.65;;
54641;SDS011;40536;53.194;5.728;2022-12-18T10:50:21;526.83;;;493.00;;
54641;SDS011;40536;53.194;5.728;2022-12-18T10:52:54;500.52;;;469.25;;
54641;SDS011;40536;53.194;5.728;2022-12-18T10:55:24;458.90;;;431.90;;
54641;SDS011;40536;53.194;5.728;2022-12-18T10:57:56;492.70;;;461.42;;
54641;SDS011;40536;53.194;5.728;2022-12-18T11:00:42;291.05;;;276.33;;
54641;SDS011;40536;53.194;5.728;2022-12-18T11:03:28;555.13;;;515.88;;
54641;SDS011;40536;53.194;5.728;2022-12-18T11:06:05;532.72;;;494.67;;
54641;SDS011;40536;53.194;5.728;2022-12-18T11:08:31;515.50;;;479.10;;
54641;SDS011;40536;53.194;5.728;2022-12-18T11:10:57;518.22;;;483.65;;
54641;SDS011;40536;53.194;5.728;2022-12-18T11:13:23;551.63;;;513.15;;
54641;SDS011;40536;53.194;5.728;2022-12-18T11:15:51;542.03;;;503.58;;
54641;SDS011;40536;53.194;5.728;2022-12-18T11:18:19;557.78;;;515.55;;
54641;SDS011;40536;53.194;5.728;2022-12-18T11:20:56;543.67;;;503.08;;
54641;SDS011;40536;53.194;5.728;2022-12-18T11:23:30;476.20;;;444.90;;
54641;SDS011;40536;53.194;5.728;2022-12-18T11:25:57;464.15;;;436.25;;
54641;SDS011;40536;53.194;5.728;2022-12-18T11:28:25;503.00;;;470.48;;
54641;SDS011;40536;53.194;5.728;2022-12-18T11:36:25;476.13;;;445.38;;
54641;SDS011;40536;53.194;5.728;2022-12-18T11:38:56;520.17;;;483.90;;
54641;SDS011;40536;53.194;5.728;2022-12-18T11:44:26;512.40;;;476.75;;
54641;SDS011;40536;53.194;5.728;2022-12-18T11:47:00;457.05;;;429.23;;
54641;SDS011;40536;53.194;5.728;2022-12-18T11:49:34;416.58;;;392.38;;
54641;SDS011;40536;53.194;5.728;2022-12-18T11:52:07;443.55;;;416.23;;
54641;SDS011;40536;53.194;5.728;2022-12-18T11:54:41;461.00;;;431.67;;
54641;SDS011;40536;53.194;5.728;2022-12-18T12:02:19;468.00;;;436.10;;
54641;SDS011;40536;53.194;5.728;2022-12-18T12:30:40;488.60;;;455.73;;
54641;SDS011;40536;53.194;5.728;2022-12-18T12:33:32;497.98;;;462.27;;
54641;SDS011;40536;53.194;5.728;2022-12-18T12:36:32;427.73;;;402.60;;
54641;SDS011;40536;53.194;5.728;2022-12-18T12:39:20;411.45;;;387.60;;
54641;SDS011;40536;53.194;5.728;2022-12-18T12:41:52;406.55;;;383.92;;
54641;SDS011;40536;53.194;5.728;2022-12-18T12:44:43;402.02;;;379.23;;
54641;SDS011;40536;53.194;5.728;2022-12-18T12:47:20;493.23;;;459.55;;
54641;SDS011;40536;53.194;5.728;2022-12-18T12:49:56;476.23;;;444.45;;
54641;SDS011;40536;53.194;5.728;2022-12-18T12:52:30;435.42;;;407.92;;
54641;SDS011;40536;53.194;5.728;2022-12-18T12:55:03;448.52;;;419.80;;
54641;SDS011;40536;53.194;5.728;2022-12-18T12:57:36;309.67;;;294.88;;
54641;SDS011;40536;53.194;5.728;2022-12-18T13:02:46;481.20;;;450.10;;
54641;SDS011;40536;53.194;5.728;2022-12-18T13:05:18;560.58;;;516.90;;
54641;SDS011;40536;53.194;5.728;2022-12-18T13:07:56;520.10;;;482.98;;
54641;SDS011;40536;53.194;5.728;2022-12-18T13:10:24;571.45;;;527.47;;
54641;SDS011;40536;53.194;5.728;2022-12-18T13:18:13;530.17;;;490.98;;
54641;SDS011;40536;53.194;5.728;2022-12-18T13:20:45;528.65;;;487.10;;
54641;SDS011;40536;53.194;5.728;2022-12-18T13:23:34;536.90;;;495.98;;
54641;SDS011;40536;53.194;5.728;2022-12-18T13:36:41;559.63;;;514.92;;
54641;SDS011;40536;53.194;5.728;2022-12-18T13:41:48;538.95;;;498.02;;
54641;SDS011;40536;53.194;5.728;2022-12-18T13:46:57;529.03;;;490.52;;
54641;SDS011;40536;53.194;5.728;2022-12-18T13:49:36;500.75;;;462.73;;
54641;SDS011;40536;53.194;5.728;2022-12-18T13:52:18;530.25;;;490.52;;
54641;SDS011;40536;53.194;5.728;2022-12-18T13:54:49;512.35;;;476.23;;
54641;SDS011;40536;53.194;5.728;2022-12-18T13:57:34;504.60;;;469.00;;
54641;SDS011;40536;53.194;5.728;2022-12-18T14:02:47;528.42;;;489.85;;
54641;SDS011;40536;53.194;5.728;2022-12-18T14:05:32;541.33;;;499.45;;
54641;SDS011;40536;53.194;5.728;2022-12-18T14:08:01;536.13;;;493.88;;
54641;SDS011;40536;53.194;5.728;2022-12-18T14:10:34;533.03;;;492.63;;
54641;SDS011;40536;53.194;5.728;2022-12-18T14:13:05;531.85;;;491.10;;
54641;SDS011;40536;53.194;5.728;2022-12-18T14:15:38;546.90;;;504.20;;
54641;SDS011;40536;53.194;5.728;2022-12-18T14:20:46;542.50;;;498.98;;
54641;SDS011;40536;53.194;5.728;2022-12-18T14:23:28;569.80;;;522.22;;
54641;SDS011;40536;53.194;5.728;2022-12-18T14:28:52;577.95;;;528.00;;
54641;SDS011;40536;53.194;5.728;2022-12-18T14:31:19;573.70;;;524.80;;
54641;SDS011;40536;53.194;5.728;2022-12-18T14:33:50;565.33;;;519.33;;
54641;SDS011;40536;53.194;5.728;2022-12-18T14:36:18;549.05;;;505.85;;
54641;SDS011;40536;53.194;5.728;2022-12-18T14:38:52;566.60;;;519.00;;
54641;SDS011;40536;53.194;5.728;2022-12-18T14:41:20;577.50;;;529.28;;
54641;SDS011;40536;53.194;5.728;2022-12-18T14:43:47;570.58;;;521.95;;
54641;SDS011;40536;53.194;5.728;2022-12-18T14:46:32;601.67;;;548.47;;
54641;SDS011;40536;53.194;5.728;2022-12-18T14:49:21;599.35;;;545.70;;
54641;SDS011;40536;53.194;5.728;2022-12-18T14:51:49;577.20;;;527.03;;
54641;SDS011;40536;53.194;5.728;2022-12-18T14:54:18;582.90;;;532.30;;
54641;SDS011;40536;53.194;5.728;2022-12-18T14:56:46;580.45;;;531.03;;
54641;SDS011;40536;53.194;5.728;2022-12-18T14:59:14;594.67;;;542.58;;
54641;SDS011;40536;53.194;5.728;2022-12-18T15:01:47;598.97;;;545.25;;
54641;SDS011;40536;53.194;5.728;2022-12-18T15:07:04;580.22;;;529.03;;
54641;SDS011;40536;53.194;5.728;2022-12-18T15:09:34;606.03;;;550.25;;
54641;SDS011;40536;53.194;5.728;2022-12-18T15:12:00;602.55;;;547.53;;
54641;SDS011;40536;53.194;5.728;2022-12-18T15:16:56;591.35;;;539.60;;
54641;SDS011;40536;53.194;5.728;2022-12-18T15:19:32;589.15;;;533.03;;
54641;SDS011;40536;53.194;5.728;2022-12-18T15:22:03;614.40;;;557.90;;
54641;SDS011;40536;53.194;5.728;2022-12-18T15:24:30;625.70;;;567.10;;
54641;SDS011;40536;53.194;5.728;2022-12-18T15:26:57;617.45;;;560.83;;
54641;SDS011;40536;53.194;5.728;2022-12-18T15:29:23;624.63;;;567.00;;
54641;SDS011;40536;53.194;5.728;2022-12-18T15:32:04;624.40;;;566.75;;
54641;SDS011;40536;53.194;5.728;2022-12-18T15:34:39;611.20;;;555.20;;
54641;SDS011;40536;53.194;5.728;2022-12-18T15:37:06;626.28;;;567.65;;
54641;SDS011;40536;53.194;5.728;2022-12-18T15:39:32;598.20;;;546.78;;
54641;SDS011;40536;53.194;5.728;2022-12-18T15:42:00;604.55;;;551.90;;
54641;SDS011;40536;53.194;5.728;2022-12-18T15:44:47;594.45;;;543.05;;
54641;SDS011;40536;53.194;5.728;2022-12-18T15:47:13;618.28;;;562.38;;
54641;SDS011;40536;53.194;5.728;2022-12-18T15:49:39;580.00;;;528.45;;
54641;SDS011;40536;53.194;5.728;2022-12-18T15:52:04;577.80;;;522.42;;
54641;SDS011;40536;53.194;5.728;2022-12-18T15:54:31;580.47;;;530.05;;
54641;SDS011;40536;53.194;5.728;2022-12-18T15:57:15;539.35;;;495.13;;
54641;SDS011;40536;53.194;5.728;2022-12-18T15:59:56;590.35;;;539.10;;
54641;SDS011;40536;53.194;5.728;2022-12-18T16:02:23;591.40;;;540.70;;
54641;SDS011;40536;53.194;5.728;2022-12-18T16:04:52;573.95;;;524.70;;
54641;SDS011;40536;53.194;5.728;2022-12-18T16:07:19;581.17;;;530.88;;
54641;SDS011;40536;53.194;5.728;2022-12-18T16:09:45;582.90;;;534.63;;
54641;SDS011;40536;53.194;5.728;2022-12-18T16:12:18;589.85;;;539.42;;